Estación de Morza
Ultimos registro cada 15 minutos 80
| N° | Estación | Fecha / Hora | Temperatura | Humedad | Lluvia | Velocidad | Dirección | Radiación | Presion |
| 80 | Morza | 04-09-2026 19:45 | 10,4 | 75 | 0 | 0 | 111 | 0 | 1020,9 |
| 79 | Morza | 04-09-2026 19:30 | 10,3 | 74 | 0 | 0 | 211 | 0 | 1020,8 |
| 78 | Morza | 04-09-2026 19:15 | 10,6 | 74 | 0 | 0 | 146 | 0 | 1020,7 |
| 77 | Morza | 04-09-2026 19:00 | 11,2 | 72 | 0 | 0 | 177 | 0 | 1020,6 |
| 76 | Morza | 04-09-2026 18:45 | 12,2 | 69 | 0 | 0 | 177 | 0 | 1020,4 |
| 75 | Morza | 04-09-2026 18:30 | 13,1 | 66 | 0 | 0 | 177 | 0 | 1020,5 |
| 74 | Morza | 04-09-2026 18:15 | 14,3 | 62 | 0 | 0 | 94 | 7 | 1020,4 |
| 73 | Morza | 04-09-2026 18:00 | 15,6 | 60 | 0 | 0,4 | 74 | 14 | 1020,3 |
| 72 | Morza | 04-09-2026 17:45 | 16 | 60 | 0 | 0 | 52 | 42 | 1020,2 |
| 71 | Morza | 04-09-2026 17:30 | 16,1 | 58 | 0 | 0,4 | 283 | 83 | 1020,1 |
| 70 | Morza | 04-09-2026 17:15 | 16,2 | 56 | 0 | 0,4 | 208 | 132 | 1019,8 |
| 69 | Morza | 04-09-2026 17:00 | 16,6 | 59 | 0 | 0 | 323 | 181 | 1019,9 |
| 68 | Morza | 04-09-2026 16:45 | 16,9 | 55 | 0 | 0,9 | 271 | 232 | 1020 |
| 67 | Morza | 04-09-2026 16:30 | 16,9 | 58 | 0 | 0,4 | 98 | 276 | 1020 |
| 66 | Morza | 04-09-2026 16:15 | 17 | 59 | 0 | 0,4 | 276 | 316 | 1020 |
| 65 | Morza | 04-09-2026 16:00 | 16,6 | 60 | 0 | 0,9 | 279 | 359 | 1019,9 |
| 64 | Morza | 04-09-2026 15:45 | 16,2 | 59 | 0 | 2,2 | 303 | 397 | 1019,9 |
| 63 | Morza | 04-09-2026 15:30 | 16,2 | 62 | 0 | 2,2 | 293 | 434 | 1020 |
| 62 | Morza | 04-09-2026 15:15 | 15,8 | 62 | 0 | 0,4 | 282 | 468 | 1020 |
| 61 | Morza | 04-09-2026 15:00 | 15,7 | 64 | 0 | 0,9 | 286 | 501 | 1020,2 |
| 60 | Morza | 04-09-2026 14:45 | 15,1 | 69 | 0 | 0,4 | 287 | 529 | 1020 |
| 59 | Morza | 04-09-2026 14:30 | 14,2 | 67 | 0 | 0,4 | 318 | 554 | 1020,1 |
| 58 | Morza | 04-09-2026 14:15 | 13,4 | 70 | 0 | 1,8 | 319 | 578 | 1020,3 |
| 57 | Morza | 04-09-2026 14:00 | 12,4 | 75 | 0 | 0,4 | 237 | 601 | 1020,6 |
| 56 | Morza | 04-09-2026 13:45 | 11,4 | 79 | 0 | 0,9 | 349 | 612 | 1020,8 |
| 55 | Morza | 04-09-2026 13:30 | 10,8 | 81 | 0 | 1,8 | 298 | 633 | 1021,1 |
| 54 | Morza | 04-09-2026 13:15 | 9,8 | 86 | 0 | 0,4 | 52 | 628 | 1021,7 |
| 53 | Morza | 04-09-2026 13:00 | 8,9 | 85 | 0 | 0,9 | 112 | 401 | 1021,9 |
| 52 | Morza | 04-09-2026 12:45 | 7,8 | 88 | 0 | 0 | 118 | 359 | 1022 |
| 51 | Morza | 04-09-2026 12:30 | 7,2 | 91 | 0 | 0,4 | 280 | 353 | 1022,2 |
| 50 | Morza | 04-09-2026 12:15 | 6,9 | 92 | 0 | 0,4 | 237 | 299 | 1022,3 |
| 49 | Morza | 04-09-2026 12:00 | 6,4 | 93 | 0 | 0,4 | 9 | 241 | 1022,4 |
| 48 | Morza | 04-09-2026 11:45 | 6,1 | 93 | 0 | 0 | 292 | 188 | 1022,3 |
| 47 | Morza | 04-09-2026 11:30 | 6,1 | 94 | 0 | 0,4 | 242 | 181 | 1022,7 |
| 46 | Morza | 04-09-2026 11:15 | 5,9 | 95 | 0 | 0,4 | 286 | 151 | 1022,6 |
| 45 | Morza | 04-09-2026 11:00 | 5,6 | 95 | 0 | 0,4 | 253 | 156 | 1022,5 |
| 44 | Morza | 04-09-2026 10:45 | 5,5 | 96 | 0 | 0,4 | 264 | 146 | 1022,6 |
| 43 | Morza | 04-09-2026 10:30 | 5,5 | 96 | 0 | 0,9 | 309 | 139 | 1022,7 |
| 42 | Morza | 04-09-2026 10:15 | 5,3 | 96 | 0 | 0 | 282 | 120 | 1022,5 |
| 41 | Morza | 04-09-2026 10:00 | 5,3 | 96 | 0 | 0 | 182 | 107 | 1022,5 |
| 40 | Morza | 04-09-2026 09:45 | 5,3 | 96 | 0 | 0,4 | 284 | 84 | 1022,6 |
| 39 | Morza | 04-09-2026 09:30 | 5,3 | 96 | 0 | 0 | 148 | 84 | 1022,7 |
| 38 | Morza | 04-09-2026 09:15 | 5,2 | 96 | 0 | 0 | 86 | 76 | 1022,6 |
| 37 | Morza | 04-09-2026 09:00 | 5,1 | 96 | 0 | 0 | 110 | 70 | 1022,6 |
| 36 | Morza | 04-09-2026 08:45 | 4,8 | 96 | 0 | 0,4 | 264 | 70 | 1022,2 |
| 35 | Morza | 04-09-2026 08:30 | 4,8 | 96 | 0 | 0,4 | 284 | 51 | 1022,4 |
| 34 | Morza | 04-09-2026 08:15 | 4,7 | 96 | 0 | 0 | 339 | 39 | 1022,4 |
| 33 | Morza | 04-09-2026 08:00 | 4,7 | 96 | 0 | 0,4 | 270 | 30 | 1022,4 |
| 32 | Morza | 04-09-2026 07:45 | 4,8 | 96 | 0 | 0,4 | 271 | 19 | 1022,2 |
| 31 | Morza | 04-09-2026 07:30 | 4,8 | 96 | 0 | 0,4 | 258 | 16 | 1022,2 |
| 30 | Morza | 04-09-2026 07:15 | 4,8 | 96 | 0 | 0 | 232 | 0 | 1022 |
| 29 | Morza | 04-09-2026 07:00 | 4,7 | 97 | 0 | 0,4 | 221 | 0 | 1022 |
| 28 | Morza | 04-09-2026 06:45 | 4,5 | 97 | 0 | 0 | 126 | 0 | 1021,9 |
| 27 | Morza | 04-09-2026 06:30 | 3,8 | 97 | 0,2 | 0 | 165 | 0 | 1021,9 |
| 26 | Morza | 04-09-2026 06:15 | 3,3 | 96 | 0 | 0 | 166 | 0 | 1021,4 |
| 25 | Morza | 04-09-2026 06:00 | 2,7 | 96 | 0 | 0 | 172 | 0 | 1021,3 |
| 24 | Morza | 04-09-2026 05:45 | 2,4 | 95 | 0 | 0 | 172 | 0 | 1021,2 |
| 23 | Morza | 04-09-2026 05:30 | 2,3 | 95 | 0 | 0 | 172 | 0 | 1021,2 |
| 22 | Morza | 04-09-2026 05:15 | 2,4 | 95 | 0 | 0 | 172 | 0 | 1021,2 |
| 21 | Morza | 04-09-2026 05:00 | 2,4 | 95 | 0 | 0 | 172 | 0 | 1021,3 |
| 20 | Morza | 04-09-2026 04:45 | 2,3 | 94 | 0 | 0 | 172 | 0 | 1021,1 |
| 19 | Morza | 04-09-2026 04:30 | 2,5 | 94 | 0 | 0 | 172 | 0 | 1021 |
| 18 | Morza | 04-09-2026 04:15 | 2,7 | 94 | 0 | 0 | 172 | 0 | 1021,1 |
| 17 | Morza | 04-09-2026 04:00 | 2,8 | 94 | 0 | 0 | 172 | 0 | 1021 |
| 16 | Morza | 04-09-2026 03:45 | 2,9 | 94 | 0 | 0 | 172 | 0 | 1020,9 |
| 15 | Morza | 04-09-2026 03:30 | 3,2 | 94 | 0 | 0 | 172 | 0 | 1021,1 |
| 14 | Morza | 04-09-2026 03:15 | 3,2 | 94 | 0 | 0,4 | 172 | 0 | 1021,3 |
| 13 | Morza | 04-09-2026 03:00 | 3,2 | 94 | 0 | 0 | 172 | 0 | 1021,4 |
| 12 | Morza | 04-09-2026 02:45 | 3,3 | 94 | 0 | 0 | 150 | 0 | 1021,6 |
| 11 | Morza | 04-09-2026 02:30 | 3,4 | 93 | 0 | 0 | 150 | 0 | 1021,7 |
| 10 | Morza | 04-09-2026 02:15 | 3,7 | 93 | 0 | 0 | 150 | 0 | 1021,9 |
| 9 | Morza | 04-09-2026 02:00 | 3,8 | 93 | 0 | 0 | 150 | 0 | 1021,9 |
| 8 | Morza | 04-09-2026 01:45 | 4 | 93 | 0 | 0,4 | 190 | 0 | 1022 |
| 7 | Morza | 04-09-2026 01:30 | 4,2 | 92 | 0 | 0 | 190 | 0 | 1022 |
| 6 | Morza | 04-09-2026 01:15 | 4,3 | 92 | 0 | 0 | 190 | 0 | 1022,1 |
| 5 | Morza | 04-09-2026 01:00 | 4,6 | 92 | 0 | 0 | 190 | 0 | 1022,1 |
| 4 | Morza | 04-09-2026 00:45 | 4,7 | 92 | 0 | 0 | 190 | 0 | 1022,3 |
| 3 | Morza | 04-09-2026 00:30 | 4,8 | 92 | 0 | 0 | 190 | 0 | 1022,3 |
| 2 | Morza | 04-09-2026 00:15 | 5,1 | 92 | 0 | 0 | 190 | 0 | 1022,2 |
| 1 | Morza | 04-09-2026 00:00 | 5,2 | 92 | 0 | 0,4 | 189 | 0 | 1022,2 |